PolandFixed distance
Supermaraton Gor Stolowych
30 Jun2018
Distance
54km
Finishers
447370 men77 women
Winning time
5:07:35h
Median pace
6.61km/h
Pace distribution
447 finishers · 5.05–10.53 km/h · mean 6.72
Every finisher ran the same 54 km course, so these paces are directly comparable.
Histogram of finisher pace. 447 finishers ranged from 5.05 to 10.53 kilometres per hour, with a mean of 6.72 and a median of 6.61. The busiest band is 6.0 to 6.5 kilometres per hour, with 102 finishers.
Results
Ranks 301–350 of 447
| Rank | Runner | Time | Pace | Cat. | Placing |
|---|---|---|---|---|---|
| 301 | Bieganiepogodzinach | 8:47:03h | 6.15 | M35 | 261st M · 73rd M35 |
| 302 | Runner'S Power | 8:47:42h | 6.14 | M35 | 262nd M · 74th M35 |
| 303 | *Gdańsk | 8:48:05h | 6.13 | M50 | 263rd M · 10th M50 |
| 304 | FC Mi Się Nie Chce | 8:48:07h | 6.13 | M23 | 264th M · 91st M23 |
| 305 | Podlesie | 8:48:15h | 6.13 | M55 | 265th M · 9th M55 |
| 306 | *Bełchatów | 8:48:16h | 6.13 | M40 | 266th M · 47th M40 |
| 307 | Rogoziński Klub Biegacza | 8:48:58h | 6.13 | M45 | 267th M · 32nd M45 |
| 308 | Biegamy.Pro | 8:49:06h | 6.12 | M23 | 268th M · 92nd M23 |
| 309 | Apiwast Kraków | 8:49:06h | 6.12 | M50 | 268th M · 11th M50 |
| 310 | *Wrocław | 8:49:12h | 6.12 | M35 | 270th M · 75th M35 |
| 311 | Rogoziński Klub Biegacza | 8:50:05h | 6.11 | W35 | 41st F · 10th W35 |
| 312 | Strzegomska Dwunastka | 8:50:34h | 6.11 | W40 | 42nd F · 9th W40 |
| 313 | Strzegomska Dwunastka | 8:50:35h | 6.11 | M40 | 271st M · 48th M40 |
| 314 | Dabex-Bolt | 8:50:36h | 6.11 | M40 | 272nd M · 49th M40 |
| 315 | Marco | 8:50:37h | 6.11 | M35 | 273rd M · 76th M35 |
| 316 | *Przysucha | 8:50:37h | 6.11 | M23 | 273rd M · 93rd M23 |
| 317 | Tkkf Mpk Poznań | 8:50:50h | 6.10 | M50 | 275th M · 12th M50 |
| 318 | Prorita Team | 8:51:24h | 6.10 | M45 | 276th M · 33rd M45 |
| 319 | Tkkf Mpk Poznań | 8:51:31h | 6.10 | W40 | 43rd F · 10th W40 |
| 320 | Kwaśne Żelki | 8:51:57h | 6.09 | M23 | 277th M · 94th M23 |
| 321 | Run Bydgoszcz | 8:52:50h | 6.08 | W35 | 44th F · 11th W35 |
| 322 | *Częstochowa | 8:52:52h | 6.08 | M45 | 278th M · 34th M45 |
| 323 | *Gliwice | 8:52:55h | 6.08 | M40 | 279th M · 50th M40 |
| 324 | Koniuchy Ocr | 8:53:12h | 6.08 | M35 | 280th M · 77th M35 |
| 325 | Rajsport Active | 8:53:51h | 6.07 | MU23 | 281st M · 3rd MU23 |
| 326 | *Mikołów | 8:54:09h | 6.07 | M50 | 282nd M · 13th M50 |
| 327 | Słynni Kenijczycy | 8:54:15h | 6.07 | M35 | 283rd M · 78th M35 |
| 328 | Słynni Kenijczycy | 8:54:15h | 6.07 | W35 | 45th F · 12th W35 |
| 329 | Zarażeni Bólem | 8:54:36h | 6.06 | W23 | 46th F · 20th W23 |
| 330 | Gb Wielkopolscy Biegacze | 8:54:37h | 6.06 | M35 | 284th M · 79th M35 |
| 331 | Goń Bliźniaki! | 8:55:17h | 6.05 | M45 | 285th M · 35th M45 |
| 332 | Goń Bliźniaki! | 8:55:17h | 6.05 | — | 285th M |
| 333 | Bodykinetic | 8:55:20h | 6.05 | M45 | 287th M · 36th M45 |
| 334 | 8:56:00h | 6.04 | M40 | 288th M · 51st M40 | |
| 335 | Bbl Zduńska Wola | 8:56:00h | 6.04 | M35 | 288th M · 80th M35 |
| 336 | Parkrun Chrzanów | 8:57:05h | 6.03 | W35 | 47th F · 13th W35 |
| 337 | *Chrzanów | 8:57:05h | 6.03 | W23 | 47th F · 21st W23 |
| 338 | *Wrocław | 8:57:35h | 6.03 | W35 | 49th F · 14th W35 |
| 339 | Cze-Mi | 8:57:54h | 6.02 | M55 | 290th M · 10th M55 |
| 340 | Dolby | 8:59:19h | 6.01 | M35 | 291st M · 81st M35 |
| 341 | Explorador | 9:00:14h | 6.00 | M35 | 292nd M · 82nd M35 |
| 342 | *Braniewo | 9:00:24h | 6.00 | W35 | 50th F · 15th W35 |
| 343 | *Konin | 9:00:41h | 5.99 | M40 | 293rd M · 52nd M40 |
| 344 | *Kościelna Wies | 9:02:18h | 5.97 | M23 | 294th M · 95th M23 |
| 345 | *Piaseczno | 9:02:36h | 5.97 | M35 | 295th M · 83rd M35 |
| 346 | *Gdynia | 9:05:26h | 5.94 | W45 | 51st F · 5th W45 |
| 347 | *Luboń | 9:06:03h | 5.93 | M45 | 296th M · 37th M45 |
| 348 | *Wrocław | 9:06:21h | 5.93 | M40 | 297th M · 53rd M40 |
| 349 | *Warszawa | 9:06:50h | 5.92 | W23 | 52nd F · 22nd W23 |
| 350 | *Konin | 9:06:55h | 5.92 | M23 | 298th M · 96th M23 |
- 301Bieganiepogodzinach261st M · 73rd M35Time8:47:03hPace6.15Cat.M35
- 302Runner'S Power262nd M · 74th M35Time8:47:42hPace6.14Cat.M35
- 303*Gdańsk263rd M · 10th M50Time8:48:05hPace6.13Cat.M50
- 304FC Mi Się Nie Chce264th M · 91st M23Time8:48:07hPace6.13Cat.M23
- 305Podlesie265th M · 9th M55Time8:48:15hPace6.13Cat.M55
- 306*Bełchatów266th M · 47th M40Time8:48:16hPace6.13Cat.M40
- 307Rogoziński Klub Biegacza267th M · 32nd M45Time8:48:58hPace6.13Cat.M45
- 308Biegamy.Pro268th M · 92nd M23Time8:49:06hPace6.12Cat.M23
- 309Apiwast Kraków268th M · 11th M50Time8:49:06hPace6.12Cat.M50
- 310*Wrocław270th M · 75th M35Time8:49:12hPace6.12Cat.M35
- 311Rogoziński Klub Biegacza41st F · 10th W35Time8:50:05hPace6.11Cat.W35
- 312Strzegomska Dwunastka42nd F · 9th W40Time8:50:34hPace6.11Cat.W40
- 313Strzegomska Dwunastka271st M · 48th M40Time8:50:35hPace6.11Cat.M40
- 314Dabex-Bolt272nd M · 49th M40Time8:50:36hPace6.11Cat.M40
- 315Marco273rd M · 76th M35Time8:50:37hPace6.11Cat.M35
- 316*Przysucha273rd M · 93rd M23Time8:50:37hPace6.11Cat.M23
- 317Tkkf Mpk Poznań275th M · 12th M50Time8:50:50hPace6.10Cat.M50
- 318Prorita Team276th M · 33rd M45Time8:51:24hPace6.10Cat.M45
- 319Tkkf Mpk Poznań43rd F · 10th W40Time8:51:31hPace6.10Cat.W40
- 320Kwaśne Żelki277th M · 94th M23Time8:51:57hPace6.09Cat.M23
- 321Run Bydgoszcz44th F · 11th W35Time8:52:50hPace6.08Cat.W35
- 322*Częstochowa278th M · 34th M45Time8:52:52hPace6.08Cat.M45
- 323*Gliwice279th M · 50th M40Time8:52:55hPace6.08Cat.M40
- 324Koniuchy Ocr280th M · 77th M35Time8:53:12hPace6.08Cat.M35
- 325Rajsport Active281st M · 3rd MU23Time8:53:51hPace6.07Cat.MU23
- 326*Mikołów282nd M · 13th M50Time8:54:09hPace6.07Cat.M50
- 327Słynni Kenijczycy283rd M · 78th M35Time8:54:15hPace6.07Cat.M35
- 328Słynni Kenijczycy45th F · 12th W35Time8:54:15hPace6.07Cat.W35
- 329Zarażeni Bólem46th F · 20th W23Time8:54:36hPace6.06Cat.W23
- 330Gb Wielkopolscy Biegacze284th M · 79th M35Time8:54:37hPace6.06Cat.M35
- 331Goń Bliźniaki!285th M · 35th M45Time8:55:17hPace6.05Cat.M45
- 332Goń Bliźniaki!285th MTime8:55:17hPace6.05
- 333Bodykinetic287th M · 36th M45Time8:55:20hPace6.05Cat.M45
- 334288th M · 51st M40Time8:56:00hPace6.04Cat.M40
- 335Bbl Zduńska Wola288th M · 80th M35Time8:56:00hPace6.04Cat.M35
- 336Parkrun Chrzanów47th F · 13th W35Time8:57:05hPace6.03Cat.W35
- 337*Chrzanów47th F · 21st W23Time8:57:05hPace6.03Cat.W23
- 338*Wrocław49th F · 14th W35Time8:57:35hPace6.03Cat.W35
- 339Cze-Mi290th M · 10th M55Time8:57:54hPace6.02Cat.M55
- 340Dolby291st M · 81st M35Time8:59:19hPace6.01Cat.M35
- 341Explorador292nd M · 82nd M35Time9:00:14hPace6.00Cat.M35
- 342*Braniewo50th F · 15th W35Time9:00:24hPace6.00Cat.W35
- 343*Konin293rd M · 52nd M40Time9:00:41hPace5.99Cat.M40
- 344*Kościelna Wies294th M · 95th M23Time9:02:18hPace5.97Cat.M23
- 345*Piaseczno295th M · 83rd M35Time9:02:36hPace5.97Cat.M35
- 346*Gdynia51st F · 5th W45Time9:05:26hPace5.94Cat.W45
- 347*Luboń296th M · 37th M45Time9:06:03hPace5.93Cat.M45
- 348*Wrocław297th M · 53rd M40Time9:06:21hPace5.93Cat.M40
- 349*Warszawa52nd F · 22nd W23Time9:06:50hPace5.92Cat.W23
- 350*Konin298th M · 96th M23Time9:06:55hPace5.92Cat.M23
Showing ranks 301–350 of 447